Impacts METAR Board
IDs:

KLAS - Las Vegas/Reid Intl, NV, US

Updated at: 1900 UTC 02 Oct 2022
Potential Impact None Slight Moderate High
Time 02/07Z 02/08Z 02/09Z 02/10Z 02/11Z 02/12Z 02/13Z 02/14Z 02/15Z 02/16Z 02/17Z 02/18Z 02/19Z
Temp81 80 80 79 78 76 75 75 78 80 85 88 89
Dewpt51 54 56 57 56 56 56 49 50 54 56 52 49
Altim29.85 29.86 29.86 29.86 29.87 29.88 29.90 29.92 29.94 29.96 29.97 29.97 29.95
VIS10 10 10 10 10 10 10 10 10 10 10 10 10
CIG-- -- -- -- -- -- -- -- -- -- -- -- --
CoverCLRCLRCLRCLRCLRCLRCLRCLRFEWFEWSCTFEWFEW
FltCatVFRVFRVFRVFRVFRVFRVFRVFRVFRVFRVFRVFRVFR
WX--------------------------
WDir200180210200190002700310120200190
WSpd8 6 5 6 4 0 0 4 0 3 6 6 11
WGst-- -- -- -- -- -- -- -- -- -- -- -- 18
Raw hourly METARs
KLAS 020656Z 20008KT 10SM CLR 27/11 A2985 RMK AO2 SLP084 T02720106 $
KLAS 020756Z 18006KT 10SM CLR 27/12 A2986 RMK AO2 SLP084 T02670122 403440211 $
KLAS 020856Z 21005KT 10SM CLR 27/13 A2986 RMK AO2 SLP084 T02670133 53003 $
KLAS 020956Z 20006KT 10SM CLR 26/14 A2986 RMK AO2 SLP083 T02610139 $
KLAS 021056Z 19004KT 10SM CLR 26/13 A2987 RMK AO2 SLP086 T02560133 $
KLAS 021156Z 00000KT 10SM CLR 24/13 A2988 RMK AO2 SLP091 T02440133 10283 20244 53006 $
KLAS 021256Z 00000KT 10SM CLR 24/13 A2990 RMK AO2 SLP100 T02390133 $
KLAS 021356Z 27004KT 10SM CLR 24/09 A2992 RMK AO2 SLP107 T02390094 $
KLAS 021456Z 00000KT 10SM FEW150 26/10 A2994 RMK AO2 SLP115 T02560100 53020 $
KLAS 021556Z 31003KT 10SM FEW100 FEW150 27/12 A2996 RMK AO2 SLP120 T02670122 $
KLAS 021656Z 12006KT 10SM FEW100 FEW150 SCT250 29/13 A2997 RMK AO2 SLP122 T02940133 $
KLAS 021756Z 20006KT 10SM FEW100 FEW250 31/11 A2997 RMK AO2 SLP120 CB DSNT NE TCU DSNT E T03110111 10311 20233 50007 $
KLAS 021856Z 19011G18KT 10SM FEW100 FEW250 32/09 A2995 RMK AO2 SLP115 CB DSNT N AND NE TCU DSNT E T03170094 $



Page loaded:  19:32 UTC  |   12:32 PM Pacific  |   01:32 PM Mountain  |   02:32 PM Central  |   03:32 PM Eastern

 

ADVISORIES

FORECASTS

FORECASTS

OBSERVATIONS

USER TOOLS

ABOUT US